Chillicothe, Texas
Current Conditions -  °F | °C
As of 4:36 AM on Friday 21 Nov 2014 (Local Time) from KF05 Reporting Station
Scattered Clouds Scattered Clouds  
Wind Chill: 36°   Ceiling: Unl
Heat Index: 36°   Visibility: 10mi
Dew Point: 32°   Wind: 3mph
Humidity: 87%   Direction: 190°S
Pressure: 29.99"   Gusts: NA
Location:  34.26°N, 99.52°W
Report Text: KF05 211036Z AUTO 19003KT 10SM SCT110 02/00 A2999 RMK AO2
Loading
Personal Weather Stations






























Interactive Weather Map New forecast layout! Learn more

10-Day Weather Forecast

Advertisements
Track Severe Weather on mobile